Time;durP1;ratioP1;P1;durP2;ratioP2;P2;SDS_P1;SDS_P2;PMS_P1;PMS_P2;Temp;Humidity;BMP_temperature;BMP_pressure;BME280_temperature;BME280_humidity;BME280_pressure;Samples;Min_cycle;Max_cycle;Signal;HPM_P1;HPM_P2
2022/03/30 00:00:57;;;;;;;24.30;8.75;;;;;;;13.69;39.72;99256.56;5569962;32;33870;-65
2022/03/30 00:04:00;;;;;;;15.38;7.95;;;;;;;13.86;39.18;99257.66;5556327;32;34082;-64
2022/03/30 00:07:04;;;;;;;15.95;7.53;;;;;;;13.80;39.46;99249.69;5569951;32;34786;-65
2022/03/30 00:10:07;;;;;;;15.82;8.02;;;;;;;13.59;40.16;99250.06;5556354;32;33915;-66
2022/03/30 00:13:10;;;;;;;16.70;8.23;;;;;;;13.45;40.25;99259.97;5569780;32;34039;-65
2022/03/30 00:16:14;;;;;;;13.70;7.37;;;;;;;13.20;40.97;99256.41;5569928;32;34632;-65
2022/03/30 00:19:18;;;;;;;16.92;8.30;;;;;;;13.11;41.26;99262.97;5569825;32;33914;-65
2022/03/30 00:22:21;;;;;;;19.95;8.73;;;;;;;13.05;41.77;99252.16;5570146;32;35392;-64
2022/03/30 00:25:24;;;;;;;14.38;7.95;;;;;;;12.99;41.18;99257.47;5569755;32;33872;-64
2022/03/30 00:28:28;;;;;;;17.92;8.27;;;;;;;13.11;41.11;99252.31;5569649;32;34152;-64
2022/03/30 00:31:33;;;;;;;16.80;7.43;;;;;;;13.04;41.26;99252.34;5569661;32;33970;-65
2022/03/30 00:34:36;;;;;;;15.68;8.90;;;;;;;12.91;41.79;99253.22;5569372;32;34183;-65
2022/03/30 00:37:39;;;;;;;17.70;8.93;;;;;;;12.96;41.79;99250.75;5569693;32;33994;-64
2022/03/30 00:40:42;;;;;;;14.05;8.40;;;;;;;12.91;41.85;99249.75;5569673;32;33991;-65
2022/03/30 00:43:45;;;;;;;18.83;8.98;;;;;;;12.78;42.27;99247.13;5555817;32;35265;-65
2022/03/30 00:46:48;;;;;;;20.65;9.43;;;;;;;12.69;42.65;99249.19;5569819;32;34588;-64
2022/03/30 00:49:51;;;;;;;18.25;9.05;;;;;;;12.65;43.06;99247.97;5569397;32;34022;-64
2022/03/30 00:52:56;;;;;;;18.55;8.95;;;;;;;12.63;43.00;99237.53;5569379;32;34419;-65
2022/03/30 00:55:59;;;;;;;19.58;8.88;;;;;;;12.48;43.65;99238.81;5569711;32;34031;-64
2022/03/30 00:59:07;;;;;;;19.85;9.77;;;;;;;12.39;44.09;99232.06;5569443;32;33914;-64
2022/03/30 01:02:10;;;;;;;18.42;8.50;;;;;;;12.24;44.25;99224.31;5569351;32;34018;-64
2022/03/30 01:05:14;;;;;;;15.65;8.52;;;;;;;12.34;44.01;99229.22;5569535;32;34790;-64
2022/03/30 01:08:17;;;;;;;14.23;7.82;;;;;;;12.27;44.51;99236.38;5555663;32;34232;-64
2022/03/30 01:11:22;;;;;;;20.02;8.70;;;;;;;12.27;44.34;99228.41;5569177;32;34024;-64
2022/03/30 01:14:25;;;;;;;16.95;8.57;;;;;;;12.26;44.61;99222.25;5570933;32;34197;-64
2022/03/30 01:17:28;;;;;;;16.87;8.85;;;;;;;12.03;44.99;99220.03;5571563;32;35263;-64
2022/03/30 01:20:32;;;;;;;16.30;7.80;;;;;;;11.84;45.56;99212.06;5571820;32;34617;-64
2022/03/30 01:23:35;;;;;;;17.02;8.05;;;;;;;11.74;45.89;99215.13;5571555;32;34110;-65
2022/03/30 01:26:39;;;;;;;14.85;7.85;;;;;;;11.68;46.10;99221.22;5571463;32;34526;-64
2022/03/30 01:33:06;;;;;;;13.25;7.35;;;;;;;11.65;46.33;99205.69;5571769;32;34102;-64
2022/03/30 01:36:10;;;;;;;16.48;8.52;;;;;;;11.65;46.53;99205.69;5571281;32;34777;-64
2022/03/30 01:39:17;;;;;;;16.30;7.80;;;;;;;11.79;46.31;99195.91;5571641;32;34002;-64
2022/03/30 01:42:20;;;;;;;16.90;8.38;;;;;;;11.74;46.39;99197.34;5571660;32;35303;-64
2022/03/30 01:45:23;;;;;;;12.52;7.70;;;;;;;11.73;46.40;99198.34;5571328;32;34411;-65
2022/03/30 01:48:26;;;;;;;16.42;7.87;;;;;;;11.73;46.35;99185.06;5571116;32;33961;-65
2022/03/30 01:51:29;;;;;;;16.15;7.60;;;;;;;11.68;46.71;99178.69;5571259;32;34318;-65
2022/03/30 01:54:35;;;;;;;11.95;7.20;;;;;;;11.64;46.97;99175.66;5571159;32;33980;-64
2022/03/30 01:57:37;;;;;;;13.52;7.57;;;;;;;11.52;46.69;99176.47;5571198;32;33976;-64
2022/03/30 02:00:40;;;;;;;11.77;7.35;;;;;;;11.45;46.72;99176.44;5571237;32;33931;-65
2022/03/30 02:03:44;;;;;;;14.00;7.47;;;;;;;11.55;47.06;99171.56;5571252;32;33925;-64
2022/03/30 02:06:46;;;;;;;14.63;7.93;;;;;;;11.37;47.17;99174.00;5570915;32;34124;-64
2022/03/30 02:09:49;;;;;;;14.75;7.75;;;;;;;11.38;47.10;99167.63;5571436;32;34440;-64
2022/03/30 02:12:52;;;;;;;15.63;7.90;;;;;;;11.28;47.93;99168.03;5571030;32;34666;-64
2022/03/30 02:15:55;;;;;;;11.88;6.82;;;;;;;11.35;47.47;99173.38;5571030;32;33957;-65
2022/03/30 02:18:57;;;;;;;15.07;7.43;;;;;;;11.32;47.21;99168.47;5570937;32;33967;-64
2022/03/30 02:22:00;;;;;;;12.13;6.90;;;;;;;11.34;47.40;99175.19;5571033;32;34097;-64
2022/03/30 02:25:04;;;;;;;17.37;6.97;;;;;;;11.28;47.61;99164.56;5570927;32;34004;-64
2022/03/30 02:28:07;;;;;;;13.40;6.93;;;;;;;11.29;47.77;99161.72;5565116;32;185773;-65
2022/03/30 02:31:12;;;;;;;19.92;7.37;;;;;;;11.40;47.69;99167.44;5570871;32;34172;-64
2022/03/30 02:34:16;;;;;;;12.82;7.20;;;;;;;11.40;47.73;99168.25;5570819;32;34586;-64
2022/03/30 02:37:19;;;;;;;15.15;7.20;;;;;;;11.38;47.99;99167.63;5570740;32;34754;-64
2022/03/30 02:40:22;;;;;;;10.60;6.72;;;;;;;11.33;48.23;99170.09;5557516;32;33880;-64
2022/03/30 02:43:24;;;;;;;13.55;6.82;;;;;;;11.24;48.44;99161.50;5570798;32;34607;-64
2022/03/30 02:46:27;;;;;;;10.68;5.93;;;;;;;11.23;48.66;99167.81;5570669;32;34078;-64
2022/03/30 02:49:30;;;;;;;14.90;7.15;;;;;;;11.21;48.86;99175.19;5570579;32;34594;-64
2022/03/30 02:52:33;;;;;;;11.32;6.43;;;;;;;11.11;49.05;99163.31;5570720;32;34673;-64
2022/03/30 02:55:36;;;;;;;14.13;7.03;;;;;;;11.05;49.33;99169.41;5570555;32;35125;-64
2022/03/30 02:58:38;;;;;;;12.60;6.85;;;;;;;11.03;49.63;99168.81;5570606;32;33940;-64
2022/03/30 03:01:41;;;;;;;12.35;6.12;;;;;;;10.99;49.68;99159.62;5570647;32;34734;-64
2022/03/30 03:04:44;;;;;;;12.27;6.43;;;;;;;10.95;49.93;99167.12;5570663;32;34443;-64
2022/03/30 03:07:47;;;;;;;13.10;6.87;;;;;;;10.89;49.91;99160.00;5570496;32;34151;-65
2022/03/30 03:10:50;;;;;;;13.50;6.10;;;;;;;10.76;50.20;99167.88;5570646;32;34584;-64
2022/03/30 03:13:53;;;;;;;13.77;6.40;;;;;;;10.65;50.56;99166.62;5570481;32;34648;-64
2022/03/30 03:16:55;;;;;;;14.07;6.35;;;;;;;10.50;51.14;99163.31;5570532;32;35228;-64
2022/03/30 03:19:58;;;;;;;12.70;6.93;;;;;;;10.41;51.44;99170.59;5570542;32;34021;-64
2022/03/30 03:23:02;;;;;;;16.40;6.00;;;;;;;10.30;52.06;99172.97;5570791;32;34019;-64
2022/03/30 03:26:07;;;;;;;10.52;6.10;;;;;;;10.17;52.43;99172.88;5570735;32;34659;-64
2022/03/30 03:29:09;;;;;;;12.18;6.60;;;;;;;10.10;52.77;99175.47;5570305;31;33932;-64
2022/03/30 03:32:12;;;;;;;13.57;6.37;;;;;;;10.01;53.22;99174.81;5570419;32;34013;-64
2022/03/30 03:35:15;;;;;;;15.23;6.28;;;;;;;9.96;53.38;99173.75;5569665;32;34244;-64
2022/03/30 03:38:18;;;;;;;17.40;6.95;;;;;;;9.89;53.69;99171.03;5570171;32;34934;-64
2022/03/30 03:41:21;;;;;;;14.80;7.30;;;;;;;9.77;54.26;99177.06;5570317;32;33916;-65
2022/03/30 03:44:24;;;;;;;13.13;6.62;;;;;;;9.66;54.36;99170.47;5570259;32;34664;-64
2022/03/30 03:47:26;;;;;;;13.75;7.18;;;;;;;9.70;54.44;99171.72;5556530;32;34295;-64
2022/03/30 03:50:29;;;;;;;14.50;6.65;;;;;;;9.66;54.56;99172.28;5570057;32;35281;-64
2022/03/30 03:53:31;;;;;;;13.50;6.90;;;;;;;9.55;54.97;99171.78;5570167;32;33935;-64
2022/03/30 03:56:34;;;;;;;13.25;6.47;;;;;;;9.51;55.47;99178.47;5569999;32;34632;-64
2022/03/30 03:59:36;;;;;;;16.90;7.37;;;;;;;9.41;55.92;99174.50;5570152;32;35279;-64
2022/03/30 04:02:40;;;;;;;12.40;6.57;;;;;;;9.32;56.32;99181.75;5556446;32;34608;-64
2022/03/30 04:05:43;;;;;;;11.73;6.22;;;;;;;9.35;57.44;99189.31;5570517;32;33937;-64
2022/03/30 04:08:46;;;;;;;9.68;5.82;;;;;;;9.30;57.32;99190.88;5569797;32;34888;-64
2022/03/30 04:11:49;;;;;;;14.55;6.47;;;;;;;9.26;57.69;99186.97;5570053;32;34408;-63
2022/03/30 04:14:52;;;;;;;14.77;6.85;;;;;;;9.38;57.99;99183.66;5569894;32;33900;-64
2022/03/30 04:17:57;;;;;;;13.25;6.32;;;;;;;9.30;57.78;99189.06;5569881;32;34588;-64
2022/03/30 04:21:00;;;;;;;11.55;6.78;;;;;;;9.23;58.58;99182.91;5556279;32;34054;-64
2022/03/30 04:24:03;;;;;;;14.13;7.15;;;;;;;9.25;58.43;99177.41;5569854;32;35166;-64
2022/03/30 04:27:06;;;;;;;10.68;6.32;;;;;;;9.09;59.03;99171.38;5569738;32;34198;-64
2022/03/30 04:30:09;;;;;;;15.45;7.07;;;;;;;9.12;59.89;99175.44;5569717;32;34063;-65
2022/03/30 04:33:12;;;;;;;12.43;6.82;;;;;;;9.09;59.54;99186.41;5569782;32;35418;-65
2022/03/30 04:36:15;;;;;;;13.80;7.07;;;;;;;9.00;60.30;99183.06;5569836;32;33973;-65
2022/03/30 04:39:18;;;;;;;12.57;6.72;;;;;;;9.01;60.74;99191.81;5555913;32;34134;-65
2022/03/30 04:42:21;;;;;;;14.75;7.30;;;;;;;8.91;60.74;99186.81;5570035;32;35187;-65
2022/03/30 04:45:24;;;;;;;15.05;6.40;;;;;;;8.95;61.58;99195.22;5556014;32;34202;-65
2022/03/30 04:48:27;;;;;;;20.65;7.43;;;;;;;8.93;61.17;99198.03;5567993;32;34753;-65
2022/03/30 04:51:30;;;;;;;14.57;7.18;;;;;;;8.83;61.74;99200.16;5569747;32;34630;-65
2022/03/30 04:54:33;;;;;;;16.77;6.60;;;;;;;8.79;62.28;99208.63;5569463;32;33989;-65
2022/03/30 04:57:36;;;;;;;14.25;6.57;;;;;;;8.78;62.39;99207.00;5569485;32;35185;-65
2022/03/30 05:00:40;;;;;;;25.73;6.47;;;;;;;8.81;62.30;99198.72;5569533;32;33961;-65
2022/03/30 05:03:43;;;;;;;17.80;6.70;;;;;;;8.82;62.67;99205.63;5569261;32;34161;-65
2022/03/30 05:06:46;;;;;;;15.15;6.57;;;;;;;8.86;62.89;99207.69;5569184;32;33992;-65
2022/03/30 05:09:49;;;;;;;12.45;6.95;;;;;;;8.96;62.57;99215.34;5569074;32;33691;-65
2022/03/30 05:12:54;;;;;;;16.23;7.12;;;;;;;9.04;62.17;99220.53;5569228;32;34231;-64
2022/03/30 05:15:56;;;;;;;13.75;8.07;;;;;;;9.13;61.97;99222.87;5555237;32;34723;-65
2022/03/30 05:19:00;;;;;;;16.73;7.62;;;;;;;9.23;62.39;99222.59;5569012;32;34058;-65
2022/03/30 05:22:04;;;;;;;18.05;6.82;;;;;;;9.39;61.83;99226.84;5568908;32;33912;-65
2022/03/30 05:25:09;;;;;;;14.43;7.05;;;;;;;9.64;61.19;99238.66;5569015;32;33884;-65
2022/03/30 05:28:11;;;;;;;23.92;7.80;;;;;;;9.77;61.31;99238.81;5568638;32;34015;-64
2022/03/30 05:31:14;;;;;;;17.05;6.97;;;;;;;9.91;60.50;99235.25;5568628;32;34613;-65
2022/03/30 05:34:17;;;;;;;17.23;7.57;;;;;;;9.87;60.67;99234.00;5554797;32;34843;-65
2022/03/30 05:37:21;;;;;;;14.75;7.03;;;;;;;9.88;60.68;99238.28;5568470;32;34674;-65
2022/03/30 05:40:23;;;;;;;19.83;7.10;;;;;;;10.01;60.79;99248.19;5568408;32;34184;-66
2022/03/30 05:43:26;;;;;;;14.23;7.37;;;;;;;10.19;60.38;99234.47;5568372;32;34035;-64
2022/03/30 05:46:29;;;;;;;19.10;7.35;;;;;;;10.35;60.20;99227.06;5567836;32;33916;-66
2022/03/30 05:49:32;;;;;;;13.88;7.72;;;;;;;10.52;59.82;99229.38;5567823;32;34674;-65
2022/03/30 05:52:35;;;;;;;15.38;8.30;;;;;;;10.72;59.17;99232.97;5568437;32;34584;-65
2022/03/30 05:55:38;;;;;;;29.73;8.40;;;;;;;10.82;58.38;99236.09;5567957;32;34097;-64
2022/03/30 05:58:41;;;;;;;15.48;9.13;;;;;;;10.84;58.67;99237.50;5555340;32;33882;-64
2022/03/30 06:01:44;;;;;;;19.52;9.18;;;;;;;10.86;59.06;99238.13;5570229;32;35337;-65
2022/03/30 06:04:50;;;;;;;21.70;8.95;;;;;;;11.11;58.54;99237.63;5570816;32;34030;-65
2022/03/30 06:07:57;;;;;;;12.88;7.20;;;;;;;11.03;57.95;99229.84;5570791;32;34273;-65
2022/03/30 06:11:00;;;;;;;21.87;8.45;;;;;;;11.03;58.66;99235.97;5570842;32;34628;-65
2022/03/30 06:14:03;;;;;;;16.25;8.23;;;;;;;11.25;58.11;99236.66;5556803;32;33943;-66
2022/03/30 06:17:07;;;;;;;22.67;8.40;;;;;;;11.17;57.50;99239.50;5570535;32;34610;-64
2022/03/30 06:20:10;;;;;;;20.90;8.35;;;;;;;11.39;57.35;99242.81;5570646;32;34033;-65
2022/03/30 06:23:13;;;;;;;22.20;8.73;;;;;;;11.55;56.60;99230.00;5571071;32;34424;-64
2022/03/30 06:26:16;;;;;;;18.80;9.15;;;;;;;11.67;56.15;99233.66;5570574;32;34061;-65
2022/03/30 06:29:20;;;;;;;18.23;8.88;;;;;;;11.87;55.35;99239.03;5570275;31;33954;-65
2022/03/30 06:32:22;;;;;;;16.35;8.50;;;;;;;12.17;53.77;99232.28;5570194;32;34304;-64
2022/03/30 06:35:25;;;;;;;23.15;10.27;;;;;;;12.62;52.69;99235.09;5570560;32;33916;-65
2022/03/30 06:38:29;;;;;;;22.65;10.10;;;;;;;12.74;52.11;99232.59;5570418;32;34146;-65
2022/03/30 06:41:32;;;;;;;20.75;9.63;;;;;;;13.47;50.86;99225.94;5570093;32;34446;-65
2022/03/30 06:44:35;;;;;;;14.77;9.38;;;;;;;14.09;48.77;99234.91;5570398;32;33962;-65
2022/03/30 06:47:38;;;;;;;19.75;9.90;;;;;;;14.22;47.99;99242.81;5570280;32;33971;-65
2022/03/30 06:50:41;;;;;;;15.35;8.63;;;;;;;14.02;47.96;99255.50;5570435;32;35171;-65
2022/03/30 06:53:44;;;;;;;21.35;8.85;;;;;;;14.57;46.44;99251.16;5570684;32;34583;-65
2022/03/30 06:56:47;;;;;;;16.80;9.30;;;;;;;14.86;43.88;99239.75;5570483;32;33990;-65
2022/03/30 06:59:51;;;;;;;14.90;9.07;;;;;;;14.95;44.26;99246.41;5570464;32;34384;-65
2022/03/30 07:02:53;;;;;;;18.37;10.10;;;;;;;15.45;42.95;99240.81;5570432;32;34891;-65
2022/03/30 07:05:57;;;;;;;18.45;9.13;;;;;;;15.88;42.16;99244.13;5570401;32;34287;-65
2022/03/30 07:12:21;;;;;;;22.52;10.02;;;;;;;16.72;40.32;99237.56;5569387;32;34216;-65
2022/03/30 07:15:23;;;;;;;22.85;10.13;;;;;;;17.00;40.01;99227.94;5570269;32;35169;-65
2022/03/30 07:18:27;;;;;;;22.58;10.32;;;;;;;17.15;39.45;99234.41;5570366;32;34651;-65
2022/03/30 07:21:30;;;;;;;17.37;9.95;;;;;;;16.50;40.48;99245.34;5570395;32;34655;-66
2022/03/30 07:24:33;;;;;;;26.92;10.13;;;;;;;16.92;40.31;99232.63;5570109;32;34545;-65
2022/03/30 07:27:40;;;;;;;19.95;10.27;;;;;;;17.46;38.88;99240.38;5556626;32;35182;-66
2022/03/30 07:30:45;;;;;;;22.98;9.95;;;;;;;17.09;38.61;99239.94;5570002;32;34608;-65
2022/03/30 07:33:48;;;;;;;19.12;9.73;;;;;;;17.78;37.94;99236.97;5570211;32;34240;-65
2022/03/30 07:36:51;;;;;;;21.85;10.60;;;;;;;18.17;36.62;99245.13;5570230;32;34678;-64
2022/03/30 07:39:53;;;;;;;19.95;10.20;;;;;;;17.64;37.86;99232.97;5569850;32;34609;-64
2022/03/30 07:42:57;;;;;;;22.75;10.48;;;;;;;17.15;39.32;99229.06;5570016;32;34146;-65
2022/03/30 07:45:59;;;;;;;18.05;10.05;;;;;;;16.64;40.48;99229.06;5569788;32;35250;-65
2022/03/30 07:49:02;;;;;;;18.95;10.27;;;;;;;16.34;40.02;99226.50;5569942;32;34971;-66
2022/03/30 07:52:06;;;;;;;26.48;11.35;;;;;;;18.03;36.66;99230.41;5570093;32;34373;-66
2022/03/30 07:55:11;;;;;;;21.12;10.30;;;;;;;16.91;39.42;99224.81;5569816;32;34126;-66
2022/03/30 07:58:15;;;;;;;19.77;10.55;;;;;;;17.07;39.44;99234.81;5570081;32;34440;-66
2022/03/30 08:01:18;;;;;;;20.05;10.50;;;;;;;16.70;40.43;99238.84;5569909;32;34563;-66
2022/03/30 08:04:22;;;;;;;20.92;9.48;;;;;;;15.91;41.78;99250.88;5570262;32;33910;-66
2022/03/30 08:07:26;;;;;;;17.92;10.35;;;;;;;16.67;40.12;99250.81;5569853;32;33941;-66
2022/03/30 08:10:30;;;;;;;23.17;10.75;;;;;;;17.26;38.78;99249.66;5569645;32;34874;-66
2022/03/30 08:13:33;;;;;;;17.48;9.75;;;;;;;17.37;38.14;99251.50;5569169;32;34481;-65
2022/03/30 08:16:37;;;;;;;21.33;10.90;;;;;;;17.57;37.61;99251.03;5569246;32;33927;-66
2022/03/30 08:19:40;;;;;;;20.35;10.40;;;;;;;17.59;37.53;99254.31;5569708;32;34063;-66
2022/03/30 08:22:43;;;;;;;21.42;11.05;;;;;;;17.73;37.90;99246.78;5569272;32;34597;-65
2022/03/30 08:25:46;;;;;;;21.77;10.80;;;;;;;16.83;39.00;99254.66;5555391;32;34623;-66
2022/03/30 08:28:49;;;;;;;23.55;9.85;;;;;;;16.53;39.72;99257.44;5569090;32;33986;-65
2022/03/30 08:31:52;;;;;;;18.25;10.77;;;;;;;16.26;40.98;99257.09;5569674;32;35188;-65
2022/03/30 08:34:56;;;;;;;22.10;10.82;;;;;;;16.46;40.50;99262.91;5569513;32;33963;-65
2022/03/30 08:37:59;;;;;;;23.38;10.90;;;;;;;16.67;39.80;99258.88;5569219;32;34109;-66
2022/03/30 08:41:02;;;;;;;20.08;10.50;;;;;;;17.15;38.21;99253.19;5569815;32;34669;-66
2022/03/30 08:44:05;;;;;;;20.23;10.18;;;;;;;18.36;36.64;99259.91;5569180;32;34285;-66
2022/03/30 08:47:11;;;;;;;16.33;10.18;;;;;;;19.23;34.42;99261.94;5569235;32;34265;-66
2022/03/30 08:50:14;;;;;;;16.37;10.43;;;;;;;18.24;35.72;99264.56;5569453;32;34095;-66
2022/03/30 08:53:19;;;;;;;23.30;10.60;;;;;;;18.93;34.73;99265.03;5569377;32;33964;-66
2022/03/30 08:56:23;;;;;;;18.80;9.55;;;;;;;18.52;35.69;99266.34;5569286;32;33916;-66
2022/03/30 08:59:27;;;;;;;16.92;9.77;;;;;;;17.35;37.35;99264.31;5569196;32;34057;-66
2022/03/30 09:02:41;;;;;;;23.25;11.15;;;;;;;17.90;36.58;99266.44;5569126;32;34521;-66
2022/03/30 09:05:45;;;;;;;16.05;9.15;;;;;;;18.08;36.67;99268.87;5569327;32;33889;-65
2022/03/30 09:08:48;;;;;;;23.20;9.77;;;;;;;18.08;36.67;99262.69;5569172;32;34652;-66
2022/03/30 09:11:55;;;;;;;17.62;8.93;;;;;;;17.88;37.04;99259.66;5555106;32;34105;-66
2022/03/30 09:15:05;;;;;;;18.90;8.88;;;;;;;17.09;38.59;99261.37;5568497;32;34889;-66
2022/03/30 09:18:27;;;;;;;26.07;9.67;;;;;;;17.34;38.12;99256.50;5568181;32;34455;-67
2022/03/30 09:21:45;;;;;;;18.05;9.07;;;;;;;16.36;39.87;99259.22;5568749;32;34386;-65
2022/03/30 09:24:53;;;;;;;18.80;9.18;;;;;;;16.41;40.06;99256.66;5568923;32;34324;-66
2022/03/30 09:27:58;;;;;;;15.57;9.07;;;;;;;16.81;39.88;99254.87;5568984;32;33973;-65
2022/03/30 09:31:02;;;;;;;19.48;9.23;;;;;;;17.40;38.65;99244.81;5568130;32;34457;-65
2022/03/30 09:34:07;;;;;;;19.67;9.05;;;;;;;17.16;38.60;99240.59;5569424;32;34179;-65
2022/03/30 09:37:11;;;;;;;18.55;10.30;;;;;;;18.05;37.81;99241.72;5571115;32;34003;-65
2022/03/30 09:40:20;;;;;;;;;;;;;;;17.17;38.58;99236.88;5571587;32;34076;-66
2022/03/30 09:43:29;;;;;;;17.58;9.10;;;;;;;17.66;37.52;99228.19;5571408;32;34351;-66
2022/03/30 09:46:32;;;;;;;17.20;9.20;;;;;;;16.72;39.00;99223.34;5571307;32;34966;-65
2022/03/30 09:49:43;;;;;;;16.87;9.32;;;;;;;17.13;38.37;99222.31;5571307;32;34594;-65
2022/03/30 09:52:47;;;;;;;18.67;9.45;;;;;;;17.70;37.84;99212.41;5570898;32;33955;-65
2022/03/30 09:55:55;;;;;;;23.95;8.88;;;;;;;17.69;37.46;99211.59;5571272;32;34148;-66
2022/03/30 09:58:59;;;;;;;17.58;9.00;;;;;;;17.96;37.44;99211.75;5570832;32;33912;-65
2022/03/30 10:02:06;;;;;;;18.37;9.18;;;;;;;18.15;36.89;99205.09;5570943;32;33994;-65
2022/03/30 10:05:12;;;;;;;19.65;9.90;;;;;;;17.62;37.43;99202.88;5571215;32;34102;-65
2022/03/30 10:08:15;;;;;;;17.67;9.82;;;;;;;17.75;37.04;99205.28;5570882;32;34688;-65
2022/03/30 10:11:20;;;;;;;26.33;9.27;;;;;;;17.94;37.04;99199.66;5570939;32;34044;-66
2022/03/30 10:14:23;;;;;;;18.17;9.52;;;;;;;17.54;36.93;99197.88;5570792;32;33983;-65
2022/03/30 10:17:29;;;;;;;18.02;9.57;;;;;;;17.39;36.75;99197.62;5571179;32;34137;-66
2022/03/30 10:20:35;;;;;;;22.98;9.98;;;;;;;16.98;37.90;99190.69;5571033;32;33989;-66
2022/03/30 10:24:34;;;;;;;16.25;9.15;;;;;;;16.55;39.27;99196.47;5570977;32;34506;-66
2022/03/30 10:28:08;;;;;;;18.08;9.00;;;;;;;17.43;38.17;99193.37;5503673;32;33837;-66
2022/03/30 10:31:11;;;;;;;16.52;8.77;;;;;;;16.76;40.55;99189.69;5510631;32;34707;-65
2022/03/30 10:34:25;;;;;;;23.50;8.88;;;;;;;17.34;39.67;99182.25;5510596;32;33816;-65
2022/03/30 10:37:31;;;;;;;22.75;8.75;;;;;;;17.33;39.77;99185.19;5510379;32;34567;-65
2022/03/30 10:40:35;;;;;;;19.85;8.38;;;;;;;16.86;40.67;99182.66;5510341;32;34058;-66
2022/03/30 10:43:38;;;;;;;16.83;7.22;;;;;;;17.24;40.44;99178.56;5510745;32;34090;-64
2022/03/30 10:46:43;;;;;;;17.10;8.20;;;;;;;17.55;39.74;99177.25;5496535;32;34745;-64
2022/03/30 10:49:57;;;;;;;17.30;7.97;;;;;;;17.17;40.20;99156.47;5510432;32;34638;-65
2022/03/30 10:53:01;;;;;;;15.75;8.05;;;;;;;17.53;39.64;99169.44;5510229;32;34181;-65
2022/03/30 10:56:09;;;;;;;17.10;7.68;;;;;;;18.09;38.32;99170.37;5510327;32;34582;-64
2022/03/30 10:59:13;;;;;;;18.87;7.72;;;;;;;18.16;38.41;99158.41;5510506;32;34656;-65
2022/03/30 11:02:15;;;;;;;16.83;7.22;;;;;;;18.23;38.21;99160.94;5522502;32;33941;-65
2022/03/30 11:05:29;;;;;;;16.80;7.93;;;;;;;17.72;39.18;99154.78;5531269;32;34027;-65
2022/03/30 11:08:32;;;;;;;17.67;7.80;;;;;;;18.11;38.71;99152.16;5531585;32;34801;-65
2022/03/30 11:11:40;;;;;;;16.45;7.60;;;;;;;18.13;38.76;99150.84;5531785;32;34655;-66
2022/03/30 11:15:01;;;;;;;13.85;6.78;;;;;;;18.00;40.46;99150.38;5531564;32;33865;-65
2022/03/30 11:18:18;;;;;;;13.50;6.80;;;;;;;18.60;38.88;99151.25;5531614;32;34501;-65
2022/03/30 11:21:22;;;;;;;14.48;6.87;;;;;;;18.76;38.14;99144.19;5530423;32;35030;-65
2022/03/30 11:24:25;;;;;;;13.80;6.43;;;;;;;18.93;37.45;99152.16;5531093;32;34116;-65
2022/03/30 11:27:28;;;;;;;13.98;7.03;;;;;;;18.20;38.28;99137.28;5531226;32;33978;-65
2022/03/30 11:30:35;;;;;;;10.98;6.25;;;;;;;18.36;38.25;99135.59;5562083;32;33933;-65
2022/03/30 11:33:38;;;;;;;12.45;6.30;;;;;;;18.23;38.31;99126.03;5570411;32;33950;-64
2022/03/30 11:36:41;;;;;;;10.20;5.80;;;;;;;18.53;37.50;99121.09;5570477;32;34110;-65
2022/03/30 11:39:49;;;;;;;12.18;6.12;;;;;;;18.60;37.45;99120.88;5569787;32;34075;-66
2022/03/30 11:42:55;;;;;;;16.37;6.05;;;;;;;18.82;36.88;99123.56;5569896;32;35191;-65
2022/03/30 11:46:23;;;;;;;21.40;6.43;;;;;;;18.79;37.01;99119.50;5570041;32;33904;-66
2022/03/30 11:49:26;;;;;;;13.62;6.68;;;;;;;18.95;37.22;99101.66;5556669;32;34007;-65
2022/03/30 11:52:29;;;;;;;10.20;5.97;;;;;;;18.59;38.12;99103.97;5570067;32;34197;-64
2022/03/30 11:56:05;;;;;;;16.58;6.62;;;;;;;18.75;38.29;99099.56;5569864;32;34670;-65
2022/03/30 11:59:09;;;;;;;8.82;5.53;;;;;;;19.03;37.60;99090.47;5570171;32;34430;-65
2022/03/30 12:02:17;;;;;;;18.50;6.70;;;;;;;19.19;37.25;99094.13;5557175;32;34287;-65
2022/03/30 12:05:21;;;;;;;15.20;7.03;;;;;;;19.36;37.11;99089.44;5569987;32;34092;-65
2022/03/30 12:08:24;;;;;;;13.55;6.85;;;;;;;19.01;37.23;99089.91;5569743;32;33904;-64
2022/03/30 12:11:30;;;;;;;11.60;6.50;;;;;;;19.24;36.46;99088.78;5570399;32;34635;-65
2022/03/30 12:14:32;;;;;;;10.70;5.93;;;;;;;18.66;37.78;99077.72;5569775;32;33882;-65
2022/03/30 12:17:36;;;;;;;14.48;5.95;;;;;;;18.76;37.07;99074.34;5569833;32;34230;-65
2022/03/30 12:20:39;;;;;;;13.95;6.37;;;;;;;17.92;38.56;99072.97;5569661;32;34346;-66
2022/03/30 12:23:57;;;;;;;13.07;8.30;;;;;;;17.87;38.67;99076.41;5569927;32;34897;-65
2022/03/30 12:27:20;;;;;;;14.45;6.07;;;;;;;18.05;38.70;99065.41;5569471;32;34324;-65
2022/03/30 12:30:24;;;;;;;11.95;5.55;;;;;;;18.20;38.42;99064.78;5569455;32;34743;-65
2022/03/30 12:33:27;;;;;;;10.95;5.95;;;;;;;18.11;38.88;99053.66;5570067;32;34454;-65
2022/03/30 12:36:43;;;;;;;9.80;5.80;;;;;;;17.09;40.68;99055.03;5556333;32;35239;-66
2022/03/30 12:39:46;;;;;;;10.80;5.22;;;;;;;17.76;39.66;99053.19;5569620;32;35243;-65
2022/03/30 12:42:59;;;;;;;10.82;5.62;;;;;;;17.50;39.93;99054.63;5569813;32;34638;-66
2022/03/30 12:46:03;;;;;;;10.70;6.05;;;;;;;17.36;40.31;99043.44;5569716;32;34522;-65
2022/03/30 12:49:08;;;;;;;9.95;5.50;;;;;;;17.29;40.49;99033.91;5569140;32;34291;-67
2022/03/30 12:52:16;;;;;;;12.20;5.90;;;;;;;17.34;40.17;99040.16;5569628;32;34161;-65
2022/03/30 12:55:28;;;;;;;10.75;5.35;;;;;;;17.65;39.55;99033.44;5555841;32;34116;-65
2022/03/30 12:58:31;;;;;;;10.07;5.30;;;;;;;17.50;39.93;99027.00;5569274;32;33909;-65
2022/03/30 13:01:40;;;;;;;10.85;5.93;;;;;;;17.79;39.41;99020.50;5569004;32;34022;-65
2022/03/30 13:04:55;;;;;;;13.30;6.68;;;;;;;17.17;40.60;99017.94;5555686;32;34025;-65
2022/03/30 13:07:59;;;;;;;10.80;5.80;;;;;;;17.20;40.51;99009.38;5568660;32;34311;-65
2022/03/30 13:11:04;;;;;;;8.52;5.57;;;;;;;17.44;40.38;99012.69;5568511;32;33863;-65
2022/03/30 13:14:11;;;;;;;12.52;6.07;;;;;;;17.33;40.11;99013.62;5569067;32;34277;-65
2022/03/30 13:17:17;;;;;;;12.02;5.85;;;;;;;17.11;40.41;99012.72;5542563;32;34131;-66
2022/03/30 13:20:20;;;;;;;12.88;6.30;;;;;;;16.91;41.14;99008.66;5555272;32;34317;-65
2022/03/30 13:23:35;;;;;;;12.95;6.28;;;;;;;16.79;40.59;99010.59;5568844;32;34418;-65
2022/03/30 13:26:40;;;;;;;15.13;6.62;;;;;;;16.48;41.12;98998.47;5568405;32;34294;-65
2022/03/30 13:29:43;;;;;;;13.30;6.72;;;;;;;16.53;40.76;99008.47;5554794;32;33868;-65
2022/03/30 13:32:46;;;;;;;11.95;6.15;;;;;;;16.20;41.41;99001.13;5568593;32;34177;-65
2022/03/30 13:35:53;;;;;;;11.52;6.47;;;;;;;16.27;41.26;98992.94;5554942;32;34671;-65
2022/03/30 13:38:56;;;;;;;10.32;5.30;;;;;;;16.41;40.99;98991.66;5568210;32;34008;-65
2022/03/30 13:42:03;;;;;;;8.70;5.07;;;;;;;16.63;40.64;98989.94;5568253;32;34686;-64
2022/03/30 13:45:07;;;;;;;8.95;5.03;;;;;;;16.40;41.14;98995.37;5568371;32;33977;-65
2022/03/30 13:48:09;;;;;;;13.75;5.72;;;;;;;16.50;41.40;98988.34;5568356;32;34628;-68
2022/03/30 13:51:13;;;;;;;9.15;5.50;;;;;;;16.24;41.88;98980.88;5568058;32;34023;-66
2022/03/30 13:54:22;;;;;;;9.25;5.43;;;;;;;16.14;42.25;98977.19;5568571;32;34566;-65
2022/03/30 13:57:25;;;;;;;9.70;5.18;;;;;;;16.34;42.10;98975.72;5554394;32;34054;-66
2022/03/30 14:00:35;;;;;;;8.38;5.03;;;;;;;16.20;42.29;98973.56;5554826;32;33940;-66
2022/03/30 14:03:39;;;;;;;9.38;4.93;;;;;;;16.15;42.22;98963.56;5554334;32;34052;-65
2022/03/30 14:06:42;;;;;;;10.77;5.03;;;;;;;16.16;42.59;98969.75;5567116;32;34723;-65
2022/03/30 14:09:45;;;;;;;9.25;5.03;;;;;;;16.05;43.31;98963.38;5567365;32;34023;-65
2022/03/30 14:12:48;;;;;;;8.52;4.35;;;;;;;15.92;44.42;98961.78;5566993;32;33937;-65
2022/03/30 14:15:55;;;;;;;7.43;5.10;;;;;;;15.90;44.91;98971.09;5567101;32;35244;-65
2022/03/30 14:18:58;;;;;;;7.10;4.45;;;;;;;15.81;45.28;98956.47;5567621;32;34643;-65
2022/03/30 14:22:01;;;;;;;15.02;4.28;;;;;;;15.85;45.73;98962.97;5570089;32;34596;-65
2022/03/30 14:25:04;;;;;;;13.15;4.85;;;;;;;15.93;46.11;98955.38;5569721;32;34583;-65
2022/03/30 14:28:09;;;;;;;9.00;3.75;;;;;;;15.86;47.36;98967.25;5569676;32;34113;-65